createdAt,value
2018-03-04T00:01:02.079Z,0
2018-03-04T00:02:12.053Z,0
2018-03-04T00:03:21.748Z,0
2018-03-04T00:04:31.206Z,0
2018-03-04T00:05:40.908Z,0
2018-03-04T00:06:50.855Z,0
2018-03-04T00:08:00.819Z,0
2018-03-04T00:09:10.514Z,0
2018-03-04T00:10:19.945Z,0
2018-03-04T00:11:29.918Z,0
2018-03-04T00:12:39.872Z,0
2018-03-04T00:13:49.563Z,0
2018-03-04T00:14:59.514Z,0
2018-03-04T00:16:09.231Z,0
2018-03-04T00:17:18.930Z,0
2018-03-04T00:18:28.625Z,0
2018-03-04T00:19:38.580Z,0
2018-03-04T00:20:48.550Z,0
2018-03-04T00:21:58.233Z,0
2018-03-04T00:23:07.964Z,0
2018-03-04T00:24:17.664Z,0
2018-03-04T00:25:27.381Z,0
2018-03-04T00:26:37.063Z,0
2018-03-04T00:27:47.196Z,0
2018-03-04T00:28:57.143Z,0
2018-03-04T00:30:06.847Z,0
2018-03-04T00:31:16.542Z,0
2018-03-04T00:32:25.982Z,0
2018-03-04T00:33:35.674Z,0
2018-03-04T00:34:45.624Z,0
2018-03-04T00:35:55.075Z,0
2018-03-04T00:37:04.509Z,0
2018-03-04T00:38:14.205Z,0
2018-03-04T00:39:24.164Z,0
2018-03-04T00:40:33.614Z,0
2018-03-04T00:41:43.327Z,0
2018-03-04T00:42:53.027Z,0
2018-03-04T00:44:02.729Z,0
2018-03-04T00:45:12.687Z,0
2018-03-04T00:46:22.634Z,0
2018-03-04T00:47:32.326Z,0
2018-03-04T00:48:42.015Z,0
2018-03-04T00:49:51.967Z,0
2018-03-04T00:51:01.920Z,0
2018-03-04T00:52:11.621Z,0
2018-03-04T00:53:21.315Z,0
2018-03-04T00:54:31.050Z,0
2018-03-04T00:55:40.744Z,0
2018-03-04T00:56:50.710Z,0
2018-03-04T00:58:00.909Z,0
2018-03-04T00:59:10.850Z,0
2018-03-04T01:00:20.539Z,0
2018-03-04T01:01:30.236Z,0
2018-03-04T01:02:39.928Z,0
2018-03-04T01:03:49.895Z,0
2018-03-04T01:04:59.320Z,0
2018-03-04T01:06:09.268Z,0
2018-03-04T01:07:19.233Z,0
2018-03-04T01:08:28.404Z,0
2018-03-04T01:09:38.343Z,0
2018-03-04T01:10:48.062Z,0
2018-03-04T01:11:57.781Z,0
2018-03-04T01:13:07.738Z,0
2018-03-04T01:14:17.178Z,0
2018-03-04T01:15:26.866Z,0
2018-03-04T01:16:36.558Z,0
2018-03-04T01:17:46.001Z,0
2018-03-04T01:18:55.469Z,0
2018-03-04T01:20:05.663Z,0
2018-03-04T01:21:15.352Z,0
2018-03-04T01:22:25.312Z,0
2018-03-04T01:23:35.261Z,0
2018-03-04T01:24:44.694Z,0
2018-03-04T01:25:54.387Z,0
2018-03-04T01:27:04.333Z,0
2018-03-04T01:28:13.764Z,0
2018-03-04T01:29:23.703Z,0
2018-03-04T01:30:33.394Z,0
2018-03-04T01:31:43.354Z,0
2018-03-04T01:32:53.360Z,0
2018-03-04T01:34:03.305Z,0
2018-03-04T01:35:12.988Z,0
2018-03-04T01:36:22.673Z,0
2018-03-04T01:37:32.378Z,0
2018-03-04T01:38:42.069Z,0
2018-03-04T01:39:51.760Z,0
2018-03-04T01:41:01.479Z,0
2018-03-04T01:42:11.157Z,0
2018-03-04T01:43:21.115Z,0
2018-03-04T01:44:31.061Z,0
2018-03-04T01:45:40.748Z,0
2018-03-04T01:46:50.436Z,0
2018-03-04T01:48:00.467Z,0
2018-03-04T01:49:10.249Z,0
2018-03-04T01:50:20.200Z,0
2018-03-04T01:51:30.149Z,0
2018-03-04T01:52:39.327Z,0
2018-03-04T01:53:49.282Z,0
2018-03-04T01:54:58.971Z,0
2018-03-04T01:56:08.397Z,0
2018-03-04T01:57:18.095Z,0
2018-03-04T01:58:27.779Z,0
2018-03-04T01:59:37.211Z,0
2018-03-04T02:00:46.900Z,0
2018-03-04T02:01:56.581Z,0
2018-03-04T02:03:06.012Z,0
2018-03-04T02:04:15.443Z,0
2018-03-04T02:05:25.143Z,0
2018-03-04T02:06:34.825Z,0
2018-03-04T02:07:44.249Z,0
2018-03-04T02:08:53.675Z,0
2018-03-04T02:10:03.365Z,0
2018-03-04T02:11:13.068Z,0
2018-03-04T02:12:22.763Z,0
2018-03-04T02:13:32.464Z,0
2018-03-04T02:14:42.151Z,0
2018-03-04T02:15:52.099Z,0
2018-03-04T02:17:01.835Z,0
2018-03-04T02:18:11.534Z,0
2018-03-04T02:19:21.474Z,0
2018-03-04T02:20:31.164Z,0
2018-03-04T02:21:40.600Z,0
2018-03-04T02:22:50.543Z,0
2018-03-04T02:24:00.033Z,0
2018-03-04T02:25:09.731Z,0
2018-03-04T02:26:19.431Z,0
2018-03-04T02:27:29.374Z,0
2018-03-04T02:28:39.316Z,0
2018-03-04T02:29:49.260Z,0
2018-03-04T02:30:59.281Z,0
2018-03-04T02:32:08.718Z,0
2018-03-04T02:33:18.174Z,0
2018-03-04T02:34:28.390Z,0
2018-03-04T02:35:37.828Z,0
2018-03-04T02:36:47.518Z,0
2018-03-04T02:37:57.472Z,0
2018-03-04T02:39:07.463Z,0
2018-03-04T02:40:17.670Z,0
2018-03-04T02:41:27.628Z,0
2018-03-04T02:42:37.326Z,0
2018-03-04T02:43:47.307Z,0
2018-03-04T02:44:57.002Z,0
2018-03-04T02:46:06.953Z,0
2018-03-04T02:47:16.380Z,0
2018-03-04T02:48:26.417Z,0
2018-03-04T02:49:36.397Z,0
2018-03-04T02:50:46.355Z,0
2018-03-04T02:51:56.608Z,0
2018-03-04T02:53:06.352Z,0
2018-03-04T02:54:16.059Z,0
2018-03-04T02:55:26.032Z,0
2018-03-04T02:56:36.002Z,0
2018-03-04T02:57:45.685Z,0
2018-03-04T02:58:55.412Z,0
2018-03-04T03:00:04.868Z,0
2018-03-04T03:01:14.582Z,0
2018-03-04T03:02:24.015Z,0
2018-03-04T03:03:33.728Z,0
2018-03-04T03:04:43.711Z,0
2018-03-04T03:05:53.400Z,0
2018-03-04T03:07:03.107Z,0
2018-03-04T03:08:12.808Z,0
2018-03-04T03:09:22.759Z,0
2018-03-04T03:10:32.446Z,0
2018-03-04T03:11:42.392Z,0
2018-03-04T03:12:52.117Z,0
2018-03-04T03:14:02.058Z,0
2018-03-04T03:15:11.827Z,0
2018-03-04T03:16:21.254Z,0
2018-03-04T03:17:30.931Z,0
2018-03-04T03:18:40.362Z,0
2018-03-04T03:19:50.304Z,0
2018-03-04T03:20:59.999Z,0
2018-03-04T03:22:09.741Z,0
2018-03-04T03:23:19.448Z,0
2018-03-04T03:24:29.410Z,0
2018-03-04T03:25:38.844Z,0
2018-03-04T03:26:48.792Z,0
2018-03-04T03:27:58.743Z,0
2018-03-04T03:29:08.448Z,0
2018-03-04T03:30:18.418Z,0
2018-03-04T03:31:27.848Z,0
2018-03-04T03:32:37.537Z,0
2018-03-04T03:33:47.229Z,0
2018-03-04T03:34:56.658Z,0
2018-03-04T03:36:06.089Z,0
2018-03-04T03:37:16.045Z,0
2018-03-04T03:38:26.144Z,0
2018-03-04T03:39:35.842Z,0
2018-03-04T03:40:45.271Z,0
2018-03-04T03:41:54.704Z,0
2018-03-04T03:43:04.391Z,0
2018-03-04T03:44:13.562Z,0
2018-03-04T03:45:23.519Z,0
2018-03-04T03:46:32.734Z,0
2018-03-04T03:47:42.683Z,0
2018-03-04T03:48:52.632Z,0
2018-03-04T03:50:02.327Z,0
2018-03-04T03:51:12.011Z,0
2018-03-04T03:52:21.702Z,0
2018-03-04T03:53:31.651Z,0
2018-03-04T03:54:41.350Z,0
2018-03-04T03:55:51.290Z,0
2018-03-04T03:57:01.244Z,0
2018-03-04T03:58:11.153Z,0
2018-03-04T03:59:21.096Z,0
2018-03-04T04:00:30.788Z,0
2018-03-04T04:01:40.735Z,0
2018-03-04T04:02:50.700Z,0
2018-03-04T04:04:00.642Z,0
2018-03-04T04:05:10.598Z,0
2018-03-04T04:06:20.801Z,0
2018-03-04T04:07:30.752Z,0
2018-03-04T04:08:40.694Z,0
2018-03-04T04:09:50.382Z,0
2018-03-04T04:11:00.080Z,0
2018-03-04T04:12:09.520Z,0
2018-03-04T04:13:18.947Z,0
2018-03-04T04:14:28.895Z,0
2018-03-04T04:15:38.589Z,0
2018-03-04T04:16:48.271Z,0
2018-03-04T04:17:57.437Z,0
2018-03-04T04:19:07.128Z,0
2018-03-04T04:20:17.142Z,0
2018-03-04T04:21:27.083Z,0
2018-03-04T04:22:37.084Z,0
2018-03-04T04:23:47.039Z,0
2018-03-04T04:24:56.467Z,0
2018-03-04T04:26:06.149Z,0
2018-03-04T04:27:15.595Z,0
2018-03-04T04:28:25.538Z,0
2018-03-04T04:29:35.487Z,0
2018-03-04T04:30:45.434Z,0
2018-03-04T04:31:55.533Z,0
2018-03-04T04:33:05.482Z,0
2018-03-04T04:34:15.481Z,0
2018-03-04T04:35:25.436Z,0
2018-03-04T04:36:35.382Z,0
2018-03-04T04:37:45.322Z,0
2018-03-04T04:38:55.256Z,0
2018-03-04T04:40:05.216Z,0
2018-03-04T04:41:15.173Z,0
2018-03-04T04:42:24.857Z,0
2018-03-04T04:43:34.050Z,0
2018-03-04T04:44:43.738Z,0
2018-03-04T04:45:53.446Z,0
2018-03-04T04:47:03.126Z,0
2018-03-04T04:48:13.324Z,0
2018-03-04T04:49:23.293Z,0
2018-03-04T04:50:32.982Z,0
2018-03-04T04:51:42.673Z,0
2018-03-04T04:52:52.617Z,0
2018-03-04T04:54:02.141Z,0
2018-03-04T04:55:12.096Z,0
2018-03-04T04:56:21.281Z,0
2018-03-04T04:57:31.226Z,0
2018-03-04T04:58:41.421Z,0
2018-03-04T04:59:51.116Z,0
2018-03-04T05:01:00.297Z,0
2018-03-04T05:02:09.730Z,0
2018-03-04T05:03:19.677Z,0
2018-03-04T05:04:29.367Z,0
2018-03-04T05:05:39.052Z,0
2018-03-04T05:06:48.748Z,0
2018-03-04T05:07:58.429Z,0
2018-03-04T05:09:08.371Z,0
2018-03-04T05:10:17.801Z,4
2018-03-04T05:11:27.496Z,4
2018-03-04T05:12:37.188Z,0
2018-03-04T05:13:47.129Z,4
2018-03-04T05:14:56.568Z,0
2018-03-04T05:16:06.250Z,4
2018-03-04T05:17:16.197Z,4
2018-03-04T05:18:25.372Z,4
2018-03-04T05:19:35.067Z,8
2018-03-04T05:20:44.489Z,12
2018-03-04T05:21:53.913Z,12
2018-03-04T05:23:03.861Z,16
2018-03-04T05:24:13.830Z,16
2018-03-04T05:25:23.530Z,20
2018-03-04T05:26:32.955Z,28
2018-03-04T05:27:42.636Z,32
2018-03-04T05:28:52.320Z,40
2018-03-04T05:30:02.259Z,44
2018-03-04T05:31:11.692Z,56
2018-03-04T05:32:21.116Z,68
2018-03-04T05:33:30.800Z,80
2018-03-04T05:34:40.747Z,92
2018-03-04T05:35:50.925Z,112
2018-03-04T05:37:00.615Z,132
2018-03-04T05:38:10.302Z,156
2018-03-04T05:39:20.246Z,180
2018-03-04T05:40:30.199Z,208
2018-03-04T05:41:40.150Z,240
2018-03-04T05:42:49.843Z,276
2018-03-04T05:43:59.776Z,312
2018-03-04T05:45:09.726Z,352
2018-03-04T05:46:19.690Z,396
2018-03-04T05:47:29.121Z,444
2018-03-04T05:48:38.566Z,496
2018-03-04T05:49:48.508Z,552
2018-03-04T05:50:57.948Z,608
2018-03-04T05:52:07.887Z,668
2018-03-04T05:53:17.572Z,732
2018-03-04T05:54:27.513Z,804
2018-03-04T05:55:37.464Z,872
2018-03-04T05:56:46.649Z,940
2018-03-04T05:57:56.600Z,1016
2018-03-04T05:59:06.285Z,1096
2018-03-04T06:00:15.709Z,1172
2018-03-04T06:01:25.133Z,1256
2018-03-04T06:02:34.851Z,1336
2018-03-04T06:03:44.535Z,1428
2018-03-04T06:04:54.221Z,1512
2018-03-04T06:06:03.648Z,1604
2018-03-04T06:07:13.842Z,1688
2018-03-04T06:08:23.541Z,1788
2018-03-04T06:09:33.232Z,1888
2018-03-04T06:10:43.185Z,2000
2018-03-04T06:11:53.139Z,2108
2018-03-04T06:13:02.844Z,2212
2018-03-04T06:14:12.533Z,2312
2018-03-04T06:15:22.475Z,2440
2018-03-04T06:16:32.175Z,2520
2018-03-04T06:17:41.606Z,2624
2018-03-04T06:18:51.585Z,2724
2018-03-04T06:20:01.287Z,2828
2018-03-04T06:21:11.242Z,2936
2018-03-04T06:22:20.924Z,3040
2018-03-04T06:23:30.881Z,3152
2018-03-04T06:24:40.901Z,3268
2018-03-04T06:25:50.642Z,3380
2018-03-04T06:27:00.091Z,3488
2018-03-04T06:28:10.049Z,3600
2018-03-04T06:29:19.996Z,3724
2018-03-04T06:30:29.950Z,3828
2018-03-04T06:31:39.654Z,3928
2018-03-04T06:32:49.343Z,4044
2018-03-04T06:33:59.034Z,4156
2018-03-04T06:35:08.986Z,4336
2018-03-04T06:36:18.150Z,4456
2018-03-04T06:37:27.586Z,4508
2018-03-04T06:38:37.023Z,4628
2018-03-04T06:39:46.457Z,4756
2018-03-04T06:40:56.153Z,4888
2018-03-04T06:42:06.103Z,5060
2018-03-04T06:43:16.154Z,5148
2018-03-04T06:44:26.142Z,5280
2018-03-04T06:45:36.097Z,5436
2018-03-04T06:46:46.051Z,5552
2018-03-04T06:47:55.272Z,5664
2018-03-04T06:49:05.245Z,5888
2018-03-04T06:50:14.941Z,5976
2018-03-04T06:51:24.903Z,6140
2018-03-04T06:52:34.339Z,6248
2018-03-04T06:53:44.288Z,6376
2018-03-04T06:54:54.242Z,6496
2018-03-04T06:56:03.670Z,6636
2018-03-04T06:57:13.361Z,6744
2018-03-04T06:58:23.088Z,6844
2018-03-04T06:59:33.035Z,6956
2018-03-04T07:00:42.718Z,7060
2018-03-04T07:01:52.148Z,7152
2018-03-04T07:03:02.090Z,7444
2018-03-04T07:04:11.834Z,7372
2018-03-04T07:05:21.796Z,7460
2018-03-04T07:06:31.228Z,7520
2018-03-04T07:07:41.183Z,7692
2018-03-04T07:08:50.641Z,8004
2018-03-04T07:09:59.821Z,8240
2018-03-04T07:11:09.519Z,8584
2018-03-04T07:12:19.212Z,8892
2018-03-04T07:13:29.175Z,9128
2018-03-04T07:14:38.351Z,9208
2018-03-04T07:15:48.047Z,9188
2018-03-04T07:16:58.136Z,9012
2018-03-04T07:18:07.652Z,8436
2018-03-04T07:19:17.607Z,7948
2018-03-04T07:20:27.046Z,8056
2018-03-04T07:21:36.742Z,8304
2018-03-04T07:22:46.700Z,8600
2018-03-04T07:23:55.872Z,8612
2018-03-04T07:25:05.814Z,8764
2018-03-04T07:26:15.768Z,8396
2018-03-04T07:27:25.730Z,8580
2018-03-04T07:28:35.696Z,8916
2018-03-04T07:29:45.233Z,9132
2018-03-04T07:30:54.666Z,8960
2018-03-04T07:32:04.376Z,9176
2018-03-04T07:33:14.336Z,9736
2018-03-04T07:34:24.329Z,9852
2018-03-04T07:35:34.030Z,9852
2018-03-04T07:36:43.983Z,10208
2018-03-04T07:37:53.941Z,10588
2018-03-04T07:39:03.891Z,10756
2018-03-04T07:40:13.331Z,10964
2018-03-04T07:41:23.285Z,11040
2018-03-04T07:42:33.248Z,11076
2018-03-04T07:43:43.248Z,11552
2018-03-04T07:44:52.950Z,12432
2018-03-04T07:46:02.645Z,13000
2018-03-04T07:47:12.597Z,13356
2018-03-04T07:48:22.579Z,14232
2018-03-04T07:49:32.270Z,15352
2018-03-04T07:50:41.964Z,15704
2018-03-04T07:51:51.914Z,16004
2018-03-04T07:53:01.852Z,16708
2018-03-04T07:54:11.806Z,16608
2018-03-04T07:55:21.781Z,16792
2018-03-04T07:56:31.743Z,16928
2018-03-04T07:57:41.429Z,16652
2018-03-04T07:58:51.121Z,16428
2018-03-04T08:00:00.821Z,16544
2018-03-04T08:01:10.771Z,16728
2018-03-04T08:02:20.716Z,16788
2018-03-04T08:03:30.425Z,16764
2018-03-04T08:04:39.870Z,16832
2018-03-04T08:05:49.567Z,16880
2018-03-04T08:06:59.518Z,16932
2018-03-04T08:08:09.481Z,16876
2018-03-04T08:09:18.959Z,15916
2018-03-04T08:10:28.660Z,15448
2018-03-04T08:11:38.635Z,15588
2018-03-04T08:12:48.105Z,15584
2018-03-04T08:13:58.081Z,15944
2018-03-04T08:15:08.047Z,16392
2018-03-04T08:16:17.998Z,16716
2018-03-04T08:17:27.698Z,17440
2018-03-04T08:18:36.977Z,17888
2018-03-04T08:19:46.689Z,17824
2018-03-04T08:20:56.392Z,18464
2018-03-04T08:22:06.090Z,26400
2018-03-04T08:23:15.591Z,26240
2018-03-04T08:24:25.279Z,26112
2018-03-04T08:25:35.306Z,25248
2018-03-04T08:26:45.267Z,25600
2018-03-04T08:27:54.968Z,25472
2018-03-04T08:29:04.677Z,26048
2018-03-04T08:30:14.377Z,26016
2018-03-04T08:31:23.814Z,25472
2018-03-04T08:32:33.512Z,26176
2018-03-04T08:33:43.230Z,26752
2018-03-04T08:34:53.216Z,26016
2018-03-04T08:36:02.938Z,26432
2018-03-04T08:37:12.919Z,26112
2018-03-04T08:38:22.617Z,26400
2018-03-04T08:39:32.081Z,27488
2018-03-04T08:40:41.313Z,28480
2018-03-04T08:41:51.274Z,28416
2018-03-04T08:43:01.241Z,27584
2018-03-04T08:44:11.214Z,28384
2018-03-04T08:45:20.913Z,29280
2018-03-04T08:46:30.886Z,31328
2018-03-04T08:47:40.841Z,30816
2018-03-04T08:48:50.808Z,30048
2018-03-04T08:50:00.511Z,30720
2018-03-04T08:51:10.478Z,32416
2018-03-04T08:52:20.434Z,34112
2018-03-04T08:53:30.132Z,34816
2018-03-04T08:54:40.090Z,35136
2018-03-04T08:55:49.793Z,34272
2018-03-04T08:56:59.504Z,36032
2018-03-04T08:58:09.220Z,37440
2018-03-04T08:59:19.384Z,37152
2018-03-04T09:00:29.359Z,37024
2018-03-04T09:01:39.073Z,35776
2018-03-04T09:02:49.033Z,33440
2018-03-04T09:03:59.053Z,34976
2018-03-04T09:05:09.034Z,36576
2018-03-04T09:06:18.741Z,35040
2018-03-04T09:07:28.459Z,34816
2018-03-04T09:08:38.264Z,34112
2018-03-04T09:09:47.391Z,34208
2018-03-04T09:10:57.100Z,34752
2018-03-04T09:12:07.052Z,35872
2018-03-04T09:13:17.032Z,37344
2018-03-04T09:14:27.010Z,37728
2018-03-04T09:15:36.711Z,38208
2018-03-04T09:16:46.689Z,36608
2018-03-04T09:17:56.422Z,35616
2018-03-04T09:19:06.446Z,35616
2018-03-04T09:20:16.166Z,35136
2018-03-04T09:21:25.860Z,35200
2018-03-04T09:22:35.830Z,34624
2018-03-04T09:23:45.531Z,33024
2018-03-04T09:24:55.250Z,31968
2018-03-04T09:26:05.209Z,31584
2018-03-04T09:27:15.177Z,32832
2018-03-04T09:28:24.881Z,32992
2018-03-04T09:29:34.455Z,32160
2018-03-04T09:30:44.159Z,32768
2018-03-04T09:31:53.885Z,33600
2018-03-04T09:33:03.869Z,33728
2018-03-04T09:34:14.000Z,32544
2018-03-04T09:35:23.975Z,32800
2018-03-04T09:36:33.665Z,34560
2018-03-04T09:37:43.635Z,34624
2018-03-04T09:38:53.598Z,35232
2018-03-04T09:40:03.552Z,38208
2018-03-04T09:41:13.525Z,39296
2018-03-04T09:42:23.509Z,41664
2018-03-04T09:43:33.462Z,39008
2018-03-04T09:44:43.462Z,40416
2018-03-04T09:45:53.177Z,41248
2018-03-04T09:47:03.151Z,36800
2018-03-04T09:48:13.116Z,47904
2018-03-04T09:49:23.141Z,51968
2018-03-04T09:50:32.600Z,49984
2018-03-04T09:51:42.296Z,48768
2018-03-04T09:52:51.996Z,49440
2018-03-04T09:54:01.977Z,49216
2018-03-04T09:55:11.674Z,58720
2018-03-04T09:56:21.118Z,58752
2018-03-04T09:57:31.105Z,61504
2018-03-04T09:58:40.814Z,61504
2018-03-04T09:59:50.258Z,61728
2018-03-04T10:00:59.962Z,60128
2018-03-04T10:02:09.263Z,61728
2018-03-04T10:03:19.289Z,61408
2018-03-04T10:04:29.277Z,58048
2018-03-04T10:05:38.997Z,59392
2018-03-04T10:06:48.449Z,56224
2018-03-04T10:07:58.435Z,50368
2018-03-04T10:09:08.156Z,48128
2018-03-04T10:10:18.130Z,49376
2018-03-04T10:11:27.574Z,49824
2018-03-04T10:12:37.538Z,46144
2018-03-04T10:13:47.235Z,44864
2018-03-04T10:14:56.756Z,47904
2018-03-04T10:16:06.235Z,51840
2018-03-04T10:17:16.225Z,51072
2018-03-04T10:18:25.949Z,48608
2018-03-04T10:19:35.928Z,50496
2018-03-04T10:20:45.905Z,49792
2018-03-04T10:21:55.875Z,47392
2018-03-04T10:23:05.853Z,49824
2018-03-04T10:24:15.299Z,53152
2018-03-04T10:25:25.269Z,54208
2018-03-04T10:26:34.992Z,55744
2018-03-04T10:27:44.719Z,62336
2018-03-04T10:28:54.438Z,81920
2018-03-04T10:30:04.140Z,81856
2018-03-04T10:31:14.112Z,81152
2018-03-04T10:32:24.081Z,82528
2018-03-04T10:33:33.790Z,81984
2018-03-04T10:34:43.756Z,83360
2018-03-04T10:35:53.736Z,84128
2018-03-04T10:37:03.722Z,87040
2018-03-04T10:38:13.720Z,85728
2018-03-04T10:39:23.686Z,87488
2018-03-04T10:40:33.673Z,85728
2018-03-04T10:41:43.658Z,84672
2018-03-04T10:42:53.615Z,82944
2018-03-04T10:44:03.627Z,81920
2018-03-04T10:45:13.593Z,85984
2018-03-04T10:46:23.036Z,88192
2018-03-04T10:47:32.745Z,88000
2018-03-04T10:48:42.202Z,87584
2018-03-04T10:49:51.661Z,86784
2018-03-04T10:51:01.382Z,85248
2018-03-04T10:52:10.835Z,86720
2018-03-04T10:53:20.813Z,87584
2018-03-04T10:54:30.801Z,87904
2018-03-04T10:55:40.508Z,84416
2018-03-04T10:56:50.475Z,85856
2018-03-04T10:57:59.939Z,85760
2018-03-04T10:59:09.552Z,92640
2018-03-04T11:00:19.003Z,91904
2018-03-04T11:01:28.703Z,94592
2018-03-04T11:02:38.412Z,94848
2018-03-04T11:03:48.129Z,94752
2018-03-04T11:04:57.860Z,92512
2018-03-04T11:06:07.825Z,93952
2018-03-04T11:07:17.562Z,88640
2018-03-04T11:08:27.544Z,92448
2018-03-04T11:09:37.554Z,96960
2018-03-04T11:10:47.624Z,94752
2018-03-04T11:11:57.082Z,98496
2018-03-04T11:13:06.790Z,93760
2018-03-04T11:14:16.782Z,92320
2018-03-04T11:15:26.958Z,87840
2018-03-04T11:16:36.740Z,82208
2018-03-04T11:17:46.704Z,88864
2018-03-04T11:18:56.417Z,90656
2018-03-04T11:20:06.142Z,95328
2018-03-04T11:21:15.610Z,92096
2018-03-04T11:22:25.337Z,96448
2018-03-04T11:23:35.330Z,93664
2018-03-04T11:24:45.040Z,92672
2018-03-04T11:25:55.011Z,88160
2018-03-04T11:27:04.742Z,89056
2018-03-04T11:28:13.695Z,90272
2018-03-04T11:29:23.412Z,93696
2018-03-04T11:30:33.381Z,92896
2018-03-04T11:31:42.835Z,92160
2018-03-04T11:32:52.544Z,98176
2018-03-04T11:34:02.730Z,104480
2018-03-04T11:35:12.446Z,99808
2018-03-04T11:36:22.166Z,96768
2018-03-04T11:37:32.148Z,99168
2018-03-04T11:38:41.611Z,92416
2018-03-04T11:39:51.076Z,92704
2018-03-04T11:41:01.059Z,98208
2018-03-04T11:42:11.027Z,95616
2018-03-04T11:43:20.995Z,95072
2018-03-04T11:44:30.447Z,97824
2018-03-04T11:45:40.147Z,103104
2018-03-04T11:46:50.115Z,101248
2018-03-04T11:48:00.113Z,94432
2018-03-04T11:49:09.844Z,85376
2018-03-04T11:50:19.294Z,84544
2018-03-04T11:51:29.034Z,91104
2018-03-04T11:52:38.502Z,98816
2018-03-04T11:53:48.507Z,95968
2018-03-04T11:54:58.492Z,95456
2018-03-04T11:56:08.218Z,96384
2018-03-04T11:57:18.190Z,92672
2018-03-04T11:58:27.653Z,96864
2018-03-04T11:59:37.377Z,98624
2018-03-04T12:00:47.351Z,98528
2018-03-04T12:01:57.069Z,98816
2018-03-04T12:03:07.040Z,99136
2018-03-04T12:04:16.236Z,102784
2018-03-04T12:05:25.952Z,100960
2018-03-04T12:06:35.671Z,101152
2018-03-04T12:07:45.648Z,103392
2018-03-04T12:08:55.098Z,99904
2018-03-04T12:10:05.086Z,101024
2018-03-04T12:11:14.802Z,104576
2018-03-04T12:12:25.037Z,102688
2018-03-04T12:13:34.789Z,101344
2018-03-04T12:14:44.901Z,98560
2018-03-04T12:15:54.892Z,98848
2018-03-04T12:17:04.899Z,100288
2018-03-04T12:18:14.614Z,97312
2018-03-04T12:19:24.776Z,102816
2018-03-04T12:20:34.772Z,95744
2018-03-04T12:21:44.492Z,92512
2018-03-04T12:22:53.965Z,97984
2018-03-04T12:24:03.846Z,101120
2018-03-04T12:25:13.561Z,96704
2018-03-04T12:26:23.541Z,97856
2018-03-04T12:27:33.532Z,99104
2018-03-04T12:28:43.237Z,95680
2018-03-04T12:29:53.409Z,97408
2018-03-04T12:31:02.603Z,97696
2018-03-04T12:32:12.340Z,96960
2018-03-04T12:33:22.104Z,100064
2018-03-04T12:34:31.562Z,98304
2018-03-04T12:35:41.276Z,97664
2018-03-04T12:36:51.088Z,97440
2018-03-04T12:38:00.798Z,97760
2018-03-04T12:39:10.288Z,99712
2018-03-04T12:40:20.257Z,99456
2018-03-04T12:41:30.218Z,105152
2018-03-04T12:42:39.930Z,102720
2018-03-04T12:43:49.641Z,96288
2018-03-04T12:44:59.380Z,100768
2018-03-04T12:46:09.346Z,97088
2018-03-04T12:47:19.311Z,97792
2018-03-04T12:48:29.022Z,101728
2018-03-04T12:49:38.493Z,96000
2018-03-04T12:50:48.522Z,95456
2018-03-04T12:51:58.244Z,94432
2018-03-04T12:53:07.957Z,95008
2018-03-04T12:54:17.944Z,94752
2018-03-04T12:55:28.010Z,93504
2018-03-04T12:56:38.071Z,95776
2018-03-04T12:57:47.539Z,96000
2018-03-04T12:58:57.705Z,92736
2018-03-04T13:00:07.442Z,91904
2018-03-04T13:01:17.544Z,90080
2018-03-04T13:02:27.541Z,94592
2018-03-04T13:03:37.254Z,95392
2018-03-04T13:04:46.710Z,96384
2018-03-04T13:05:56.444Z,98208
2018-03-04T13:07:06.421Z,97856
2018-03-04T13:08:16.414Z,93408
2018-03-04T13:09:26.388Z,93408
2018-03-04T13:10:36.379Z,91776
2018-03-04T13:11:46.360Z,89920
2018-03-04T13:12:56.346Z,91136
2018-03-04T13:14:06.082Z,91648
2018-03-04T13:15:15.791Z,92416
2018-03-04T13:16:25.772Z,88864
2018-03-04T13:17:35.240Z,87872
2018-03-04T13:18:44.960Z,90016
2018-03-04T13:19:54.672Z,92736
2018-03-04T13:21:04.390Z,93408
2018-03-04T13:22:14.354Z,92128
2018-03-04T13:23:24.383Z,88224
2018-03-04T13:24:34.354Z,88224
2018-03-04T13:25:44.073Z,85600
2018-03-04T13:26:53.783Z,86080
2018-03-04T13:28:03.496Z,85184
2018-03-04T13:29:13.478Z,86464
2018-03-04T13:30:23.198Z,84256
2018-03-04T13:31:32.665Z,81024
2018-03-04T13:32:42.640Z,84960
2018-03-04T13:33:52.358Z,84512
2018-03-04T13:35:02.116Z,86336
2018-03-04T13:36:12.134Z,92896
2018-03-04T13:37:22.242Z,87200
2018-03-04T13:38:32.243Z,90336
2018-03-04T13:39:41.437Z,87328
2018-03-04T13:40:50.885Z,84896
2018-03-04T13:42:00.633Z,84512
2018-03-04T13:43:10.372Z,83840
2018-03-04T13:44:20.095Z,86368
2018-03-04T13:45:29.829Z,86592
2018-03-04T13:46:39.635Z,87040
2018-03-04T13:47:49.372Z,84640
2018-03-04T13:48:59.336Z,82880
2018-03-04T13:50:08.812Z,81760
2018-03-04T13:51:18.789Z,78144
2018-03-04T13:52:28.515Z,80544
2018-03-04T13:53:38.487Z,81792
2018-03-04T13:54:48.454Z,81120
2018-03-04T13:55:58.431Z,80000
2018-03-04T13:57:08.409Z,81728
2018-03-04T13:58:18.125Z,81376
2018-03-04T13:59:28.124Z,79584
2018-03-04T14:00:37.869Z,77184
2018-03-04T14:01:47.863Z,79680
2018-03-04T14:02:57.861Z,97152
2018-03-04T14:04:07.339Z,113568
2018-03-04T14:05:17.060Z,80160
2018-03-04T14:06:26.779Z,60576
2018-03-04T14:07:36.762Z,85216
2018-03-04T14:08:46.737Z,75648
2018-03-04T14:09:56.447Z,37856
2018-03-04T14:11:05.935Z,54496
2018-03-04T14:12:15.662Z,72960
2018-03-04T14:13:25.372Z,61152
2018-03-04T14:14:35.352Z,54560
2018-03-04T14:15:45.334Z,72576
2018-03-04T14:16:55.043Z,76256
2018-03-04T14:18:04.484Z,73888
2018-03-04T14:19:14.500Z,71584
2018-03-04T14:20:24.481Z,69632
2018-03-04T14:21:33.728Z,71008
2018-03-04T14:22:43.482Z,70432
2018-03-04T14:23:53.461Z,70848
2018-03-04T14:25:03.437Z,67488
2018-03-04T14:26:12.897Z,70592
2018-03-04T14:27:22.880Z,69568
2018-03-04T14:28:32.599Z,70144
2018-03-04T14:29:42.563Z,67872
2018-03-04T14:30:52.530Z,67680
2018-03-04T14:32:01.988Z,69248
2018-03-04T14:33:11.460Z,65536
2018-03-04T14:34:20.906Z,65664
2018-03-04T14:35:30.361Z,63552
2018-03-04T14:36:40.093Z,63520
2018-03-04T14:37:50.065Z,61632
2018-03-04T14:39:00.031Z,62368
2018-03-04T14:40:10.017Z,64960
2018-03-04T14:41:20.004Z,63488
2018-03-04T14:42:29.741Z,63840
2018-03-04T14:43:39.729Z,65760
2018-03-04T14:44:49.704Z,63072
2018-03-04T14:45:59.162Z,61504
2018-03-04T14:47:09.137Z,62624
2018-03-04T14:48:18.843Z,62208
2018-03-04T14:49:28.609Z,61024
2018-03-04T14:50:38.382Z,61952
2018-03-04T14:51:48.094Z,61760
2018-03-04T14:52:58.215Z,55200
2018-03-04T14:54:07.937Z,53408
2018-03-04T14:55:17.678Z,56000
2018-03-04T14:56:27.665Z,51072
2018-03-04T14:57:37.125Z,50496
2018-03-04T14:58:47.115Z,54688
2018-03-04T14:59:56.831Z,52096
2018-03-04T15:01:05.774Z,52032
2018-03-04T15:02:15.744Z,51328
2018-03-04T15:03:25.464Z,53760
2018-03-04T15:04:35.431Z,47328
2018-03-04T15:05:45.139Z,50400
2018-03-04T15:06:54.860Z,48896
2018-03-04T15:08:04.308Z,50112
2018-03-04T15:09:14.284Z,50624
2018-03-04T15:10:24.393Z,44512
2018-03-04T15:11:34.442Z,46304
2018-03-04T15:12:44.541Z,42496
2018-03-04T15:13:54.249Z,44576
2018-03-04T15:15:03.948Z,41344
2018-03-04T15:16:13.659Z,40704
2018-03-04T15:17:23.354Z,43168
2018-03-04T15:18:32.805Z,47616
2018-03-04T15:19:42.772Z,45376
2018-03-04T15:20:52.479Z,38112
2018-03-04T15:22:02.443Z,36768
2018-03-04T15:23:12.158Z,28800
2018-03-04T15:24:21.873Z,35264
2018-03-04T15:25:31.872Z,40864
2018-03-04T15:26:41.872Z,37280
2018-03-04T15:27:51.602Z,35200
2018-03-04T15:29:01.602Z,33024
2018-03-04T15:30:11.324Z,33088
2018-03-04T15:31:21.304Z,32000
2018-03-04T15:32:30.737Z,31520
2018-03-04T15:33:40.466Z,30144
2018-03-04T15:34:50.453Z,27680
2018-03-04T15:36:00.165Z,25120
2018-03-04T15:37:09.883Z,25792
2018-03-04T15:38:19.349Z,25440
2018-03-04T15:39:28.801Z,25600
2018-03-04T15:40:38.523Z,23488
2018-03-04T15:41:48.250Z,23904
2018-03-04T15:42:58.221Z,23200
2018-03-04T15:44:07.952Z,23072
2018-03-04T15:45:17.926Z,21952